Airfield :
LOGIN :

Register | Disclaimer

   EN    FR    IT 

 










Legend :    VFR   Marginal VFR   IFR   Intensive IFR   Very Intensive IFR
Visi :
Ceiling :
>= 8 km
>= 3000ft
5 to 8 km
1000 to 3000 ft
1500m to 5 km
500 to 1000 ft
800 to 1500m
200 to 500 ft
< 800m
< 200 ft
Symbols :   Thunderstorms  Fog  Heavy snow  Heavy precipitations  Wind > 20 kt
SIGMETs :     Misc.  Thunderstorms  Icing  Turbulence  Mountain Waves  Volcanic Ashes







- Airport Elevation : 1302 ft
- IATA code : GNB
- Download approach charts


LFLS - Grenoble / St. Geoirs

CURRENT METAR :
  • 220800Z AUTO 08013KT CAVOK 09/01 Q1029 BECMG VRB03KT

EXPIRED METARs :
  • 220730Z AUTO 09005KT CAVOK 07/02 Q1030 NOSIG
  • 220700Z AUTO 10003KT CAVOK 04/00 Q1029 NOSIG
  • 220630Z AUTO 08002KT CAVOK 01/M01 Q1029 NOSIG
  • 220600Z AUTO 15003KT CAVOK M01/M03 Q1029 TEMPO 3000 BR
  • 220530Z AUTO 12004KT CAVOK M01/M03 Q1029 TEMPO 3000 BR
  • 220500Z AUTO 12003KT CAVOK M00/M03 Q1028 TEMPO 3000 BR

TAF TAF LFLS
Valid from the 22 at 03:00 until the 23 at 03:00 UTC


220200Z 2203/2303 VRB03KT CAVOK
PROB40
TEMPO 2204/2207 3000 BR
PROB40 2214/2218 36006KT
ATIS : +33 4 76 65 55 89
No reported NOTAMs for that airfield.



MET'MAP, your aeronautical weather chart ! - Copyright ORBIFLY December 2007 - Disclaimer

ORBIFLY MET'MAP TEAM :

Programming & Development : Alexandra Zaïnal
Concept & Development : Baudouin d'Aumeries
Co-Development & Prog : Marc-Olivier Méhu
Technical & hardware support : Manuel Goepfert

Contact : metmap@orbifly.com




SOURCES & CREDITS :

   NOAA